sensor_id;sensor_type;location;lat;lon;timestamp;temperature;humidity
3868;DHT22;1949;48.152;11.528;2024-01-25T00:01:27;12.90;48.60
3868;DHT22;1949;48.152;11.528;2024-01-25T00:03:52;12.90;48.70
3868;DHT22;1949;48.152;11.528;2024-01-25T00:06:19;12.90;48.80
3868;DHT22;1949;48.152;11.528;2024-01-25T00:08:46;12.90;48.80
3868;DHT22;1949;48.152;11.528;2024-01-25T00:11:12;12.90;48.80
3868;DHT22;1949;48.152;11.528;2024-01-25T00:13:38;12.90;48.80
3868;DHT22;1949;48.152;11.528;2024-01-25T00:16:04;12.90;48.80
3868;DHT22;1949;48.152;11.528;2024-01-25T00:18:30;12.90;48.90
3868;DHT22;1949;48.152;11.528;2024-01-25T00:20:56;12.90;48.90
3868;DHT22;1949;48.152;11.528;2024-01-25T00:23:24;12.90;48.90
3868;DHT22;1949;48.152;11.528;2024-01-25T00:25:52;12.90;48.80
3868;DHT22;1949;48.152;11.528;2024-01-25T00:28:17;12.80;48.90
3868;DHT22;1949;48.152;11.528;2024-01-25T00:30:43;12.80;49.00
3868;DHT22;1949;48.152;11.528;2024-01-25T00:33:09;12.80;48.90
3868;DHT22;1949;48.152;11.528;2024-01-25T00:35:35;12.80;49.10
3868;DHT22;1949;48.152;11.528;2024-01-25T00:38:01;12.80;49.20
3868;DHT22;1949;48.152;11.528;2024-01-25T00:40:27;12.80;49.10
3868;DHT22;1949;48.152;11.528;2024-01-25T00:42:53;12.80;49.10
3868;DHT22;1949;48.152;11.528;2024-01-25T00:45:19;12.80;49.10
3868;DHT22;1949;48.152;11.528;2024-01-25T00:47:48;12.80;49.20
3868;DHT22;1949;48.152;11.528;2024-01-25T00:50:15;12.80;49.20
3868;DHT22;1949;48.152;11.528;2024-01-25T00:52:52;12.80;49.10
3868;DHT22;1949;48.152;11.528;2024-01-25T00:55:21;12.80;49.10
3868;DHT22;1949;48.152;11.528;2024-01-25T00:57:47;12.70;49.10
3868;DHT22;1949;48.152;11.528;2024-01-25T01:00:13;12.70;49.10
3868;DHT22;1949;48.152;11.528;2024-01-25T01:02:45;12.70;49.10
3868;DHT22;1949;48.152;11.528;2024-01-25T01:05:12;12.60;49.10
3868;DHT22;1949;48.152;11.528;2024-01-25T01:07:39;12.60;49.20
3868;DHT22;1949;48.152;11.528;2024-01-25T01:10:08;12.70;49.30
3868;DHT22;1949;48.152;11.528;2024-01-25T01:12:35;12.70;49.20
3868;DHT22;1949;48.152;11.528;2024-01-25T01:15:00;12.70;49.10
3868;DHT22;1949;48.152;11.528;2024-01-25T01:17:26;12.70;49.10
3868;DHT22;1949;48.152;11.528;2024-01-25T01:19:53;12.70;49.20
3868;DHT22;1949;48.152;11.528;2024-01-25T01:22:18;12.70;49.20
3868;DHT22;1949;48.152;11.528;2024-01-25T01:24:44;12.80;49.20
3868;DHT22;1949;48.152;11.528;2024-01-25T01:27:10;12.80;49.10
3868;DHT22;1949;48.152;11.528;2024-01-25T01:29:35;12.80;49.00
3868;DHT22;1949;48.152;11.528;2024-01-25T01:32:04;12.80;49.10
3868;DHT22;1949;48.152;11.528;2024-01-25T01:34:31;12.80;49.00
3868;DHT22;1949;48.152;11.528;2024-01-25T01:36:58;12.80;49.00
3868;DHT22;1949;48.152;11.528;2024-01-25T01:39:28;12.80;49.10
3868;DHT22;1949;48.152;11.528;2024-01-25T01:41:55;12.80;49.10
3868;DHT22;1949;48.152;11.528;2024-01-25T01:44:21;12.80;49.00
3868;DHT22;1949;48.152;11.528;2024-01-25T01:46:48;12.70;49.10
3868;DHT22;1949;48.152;11.528;2024-01-25T01:49:14;12.70;49.10
3868;DHT22;1949;48.152;11.528;2024-01-25T01:51:41;12.70;49.10
3868;DHT22;1949;48.152;11.528;2024-01-25T01:54:19;12.80;49.10
3868;DHT22;1949;48.152;11.528;2024-01-25T01:56:46;12.80;49.10
3868;DHT22;1949;48.152;11.528;2024-01-25T01:59:12;12.80;49.20
3868;DHT22;1949;48.152;11.528;2024-01-25T02:01:40;12.80;49.10
3868;DHT22;1949;48.152;11.528;2024-01-25T02:04:05;12.90;49.30
3868;DHT22;1949;48.152;11.528;2024-01-25T02:06:31;12.90;49.10
3868;DHT22;1949;48.152;11.528;2024-01-25T02:08:57;12.90;49.00
3868;DHT22;1949;48.152;11.528;2024-01-25T02:11:26;12.90;49.20
3868;DHT22;1949;48.152;11.528;2024-01-25T02:13:52;12.90;49.20
3868;DHT22;1949;48.152;11.528;2024-01-25T02:16:18;12.90;49.00
3868;DHT22;1949;48.152;11.528;2024-01-25T02:18:46;12.90;49.00
3868;DHT22;1949;48.152;11.528;2024-01-25T02:21:15;12.90;49.00
3868;DHT22;1949;48.152;11.528;2024-01-25T02:23:42;12.80;49.00
3868;DHT22;1949;48.152;11.528;2024-01-25T02:26:08;12.80;48.90
3868;DHT22;1949;48.152;11.528;2024-01-25T02:28:37;12.80;49.10
3868;DHT22;1949;48.152;11.528;2024-01-25T02:31:03;12.80;49.20
3868;DHT22;1949;48.152;11.528;2024-01-25T02:33:28;12.80;49.10
3868;DHT22;1949;48.152;11.528;2024-01-25T02:35:56;12.80;49.20
3868;DHT22;1949;48.152;11.528;2024-01-25T02:38:22;12.90;49.20
3868;DHT22;1949;48.152;11.528;2024-01-25T02:40:48;12.90;49.20
3868;DHT22;1949;48.152;11.528;2024-01-25T02:43:13;12.90;49.10
3868;DHT22;1949;48.152;11.528;2024-01-25T02:45:39;12.90;49.10
3868;DHT22;1949;48.152;11.528;2024-01-25T02:48:06;12.90;49.20
3868;DHT22;1949;48.152;11.528;2024-01-25T02:50:40;12.90;49.30
3868;DHT22;1949;48.152;11.528;2024-01-25T02:53:09;12.90;49.30
3868;DHT22;1949;48.152;11.528;2024-01-25T02:55:35;12.90;49.20
3868;DHT22;1949;48.152;11.528;2024-01-25T02:58:03;12.90;49.20
3868;DHT22;1949;48.152;11.528;2024-01-25T03:00:29;12.90;49.30
3868;DHT22;1949;48.152;11.528;2024-01-25T03:03:03;12.90;49.20
3868;DHT22;1949;48.152;11.528;2024-01-25T03:05:28;12.80;49.10
3868;DHT22;1949;48.152;11.528;2024-01-25T03:07:56;12.80;49.20
3868;DHT22;1949;48.152;11.528;2024-01-25T03:10:23;12.80;49.30
3868;DHT22;1949;48.152;11.528;2024-01-25T03:12:52;12.90;49.40
3868;DHT22;1949;48.152;11.528;2024-01-25T03:15:17;12.90;49.30
3868;DHT22;1949;48.152;11.528;2024-01-25T03:17:43;12.90;49.40
3868;DHT22;1949;48.152;11.528;2024-01-25T03:20:10;12.90;49.30
3868;DHT22;1949;48.152;11.528;2024-01-25T03:22:38;12.90;49.20
3868;DHT22;1949;48.152;11.528;2024-01-25T03:25:04;12.90;49.20
3868;DHT22;1949;48.152;11.528;2024-01-25T03:27:30;12.90;49.20
3868;DHT22;1949;48.152;11.528;2024-01-25T03:29:57;12.90;49.20
3868;DHT22;1949;48.152;11.528;2024-01-25T03:32:23;12.90;49.20
3868;DHT22;1949;48.152;11.528;2024-01-25T03:34:50;12.80;49.20
3868;DHT22;1949;48.152;11.528;2024-01-25T03:37:18;12.80;49.20
3868;DHT22;1949;48.152;11.528;2024-01-25T03:39:46;12.80;49.30
3868;DHT22;1949;48.152;11.528;2024-01-25T03:42:14;12.80;49.40
3868;DHT22;1949;48.152;11.528;2024-01-25T03:44:40;12.90;49.50
3868;DHT22;1949;48.152;11.528;2024-01-25T03:47:08;12.90;49.50
3868;DHT22;1949;48.152;11.528;2024-01-25T03:49:35;12.90;49.50
3868;DHT22;1949;48.152;11.528;2024-01-25T03:52:01;13.00;49.60
3868;DHT22;1949;48.152;11.528;2024-01-25T03:54:27;13.00;49.30
3868;DHT22;1949;48.152;11.528;2024-01-25T03:56:53;12.90;49.10
3868;DHT22;1949;48.152;11.528;2024-01-25T03:59:18;12.90;49.20
3868;DHT22;1949;48.152;11.528;2024-01-25T04:01:48;12.80;49.20
3868;DHT22;1949;48.152;11.528;2024-01-25T04:04:15;12.80;49.40
3868;DHT22;1949;48.152;11.528;2024-01-25T04:06:41;12.70;49.30
3868;DHT22;1949;48.152;11.528;2024-01-25T04:09:13;12.70;49.50
3868;DHT22;1949;48.152;11.528;2024-01-25T04:11:41;12.70;49.40
3868;DHT22;1949;48.152;11.528;2024-01-25T04:14:09;12.70;49.40
3868;DHT22;1949;48.152;11.528;2024-01-25T04:16:40;12.70;49.50
3868;DHT22;1949;48.152;11.528;2024-01-25T04:19:06;12.70;49.50
3868;DHT22;1949;48.152;11.528;2024-01-25T04:21:36;12.70;49.50
3868;DHT22;1949;48.152;11.528;2024-01-25T04:24:02;12.70;49.50
3868;DHT22;1949;48.152;11.528;2024-01-25T04:26:28;12.70;49.50
3868;DHT22;1949;48.152;11.528;2024-01-25T04:28:54;12.70;49.50
3868;DHT22;1949;48.152;11.528;2024-01-25T04:31:20;12.70;49.50
3868;DHT22;1949;48.152;11.528;2024-01-25T04:33:46;12.70;49.50
3868;DHT22;1949;48.152;11.528;2024-01-25T04:36:12;12.70;49.50
3868;DHT22;1949;48.152;11.528;2024-01-25T04:38:48;12.70;49.60
3868;DHT22;1949;48.152;11.528;2024-01-25T04:41:15;12.70;49.50
3868;DHT22;1949;48.152;11.528;2024-01-25T04:43:42;12.60;49.30
3868;DHT22;1949;48.152;11.528;2024-01-25T04:46:09;12.60;49.50
3868;DHT22;1949;48.152;11.528;2024-01-25T04:48:34;12.60;49.60
3868;DHT22;1949;48.152;11.528;2024-01-25T04:51:00;12.60;49.70
3868;DHT22;1949;48.152;11.528;2024-01-25T04:53:26;12.60;49.80
3868;DHT22;1949;48.152;11.528;2024-01-25T04:55:54;12.50;49.60
3868;DHT22;1949;48.152;11.528;2024-01-25T04:58:20;12.60;49.70
3868;DHT22;1949;48.152;11.528;2024-01-25T05:00:46;12.50;49.60
3868;DHT22;1949;48.152;11.528;2024-01-25T05:03:13;12.50;49.70
3868;DHT22;1949;48.152;11.528;2024-01-25T05:05:41;12.50;49.80
3868;DHT22;1949;48.152;11.528;2024-01-25T05:08:07;12.50;49.70
3868;DHT22;1949;48.152;11.528;2024-01-25T05:10:32;12.50;49.80
3868;DHT22;1949;48.152;11.528;2024-01-25T05:12:58;12.50;49.90
3868;DHT22;1949;48.152;11.528;2024-01-25T05:15:24;12.50;49.90
3868;DHT22;1949;48.152;11.528;2024-01-25T05:17:50;12.50;49.90
3868;DHT22;1949;48.152;11.528;2024-01-25T05:20:16;12.50;50.00
3868;DHT22;1949;48.152;11.528;2024-01-25T05:22:44;12.50;49.90
3868;DHT22;1949;48.152;11.528;2024-01-25T05:25:11;12.50;49.90
3868;DHT22;1949;48.152;11.528;2024-01-25T05:27:37;12.50;49.80
3868;DHT22;1949;48.152;11.528;2024-01-25T05:30:05;12.50;49.80
3868;DHT22;1949;48.152;11.528;2024-01-25T05:32:31;12.50;49.80
3868;DHT22;1949;48.152;11.528;2024-01-25T05:35:04;12.40;49.80
3868;DHT22;1949;48.152;11.528;2024-01-25T05:37:30;12.40;49.90
3868;DHT22;1949;48.152;11.528;2024-01-25T05:39:56;12.40;50.00
3868;DHT22;1949;48.152;11.528;2024-01-25T05:42:21;12.40;50.00
3868;DHT22;1949;48.152;11.528;2024-01-25T05:44:49;12.40;50.00
3868;DHT22;1949;48.152;11.528;2024-01-25T05:47:19;12.40;50.00
3868;DHT22;1949;48.152;11.528;2024-01-25T05:49:46;12.40;50.00
3868;DHT22;1949;48.152;11.528;2024-01-25T05:52:17;12.40;49.90
3868;DHT22;1949;48.152;11.528;2024-01-25T05:54:45;12.40;50.00
3868;DHT22;1949;48.152;11.528;2024-01-25T05:57:11;12.40;50.00
3868;DHT22;1949;48.152;11.528;2024-01-25T05:59:36;12.40;50.00
3868;DHT22;1949;48.152;11.528;2024-01-25T06:02:02;12.40;50.00
3868;DHT22;1949;48.152;11.528;2024-01-25T06:04:34;12.40;50.00
3868;DHT22;1949;48.152;11.528;2024-01-25T06:07:01;12.40;50.00
3868;DHT22;1949;48.152;11.528;2024-01-25T06:09:27;12.30;50.10
3868;DHT22;1949;48.152;11.528;2024-01-25T06:11:53;12.30;50.00
3868;DHT22;1949;48.152;11.528;2024-01-25T06:14:18;12.30;50.00
3868;DHT22;1949;48.152;11.528;2024-01-25T06:16:45;12.30;50.10
3868;DHT22;1949;48.152;11.528;2024-01-25T06:19:11;12.30;50.10
3868;DHT22;1949;48.152;11.528;2024-01-25T06:21:39;12.30;50.10
3868;DHT22;1949;48.152;11.528;2024-01-25T06:24:12;12.30;50.10
3868;DHT22;1949;48.152;11.528;2024-01-25T06:26:41;12.30;50.20
3868;DHT22;1949;48.152;11.528;2024-01-25T06:29:09;12.30;50.30
3868;DHT22;1949;48.152;11.528;2024-01-25T06:31:42;12.30;50.20
3868;DHT22;1949;48.152;11.528;2024-01-25T06:34:09;12.40;50.10
3868;DHT22;1949;48.152;11.528;2024-01-25T06:36:36;12.40;50.20
3868;DHT22;1949;48.152;11.528;2024-01-25T06:39:10;12.40;50.20
3868;DHT22;1949;48.152;11.528;2024-01-25T06:41:36;12.40;50.10
3868;DHT22;1949;48.152;11.528;2024-01-25T06:44:02;12.40;50.10
3868;DHT22;1949;48.152;11.528;2024-01-25T06:46:29;12.40;50.20
3868;DHT22;1949;48.152;11.528;2024-01-25T06:48:55;12.40;50.00
3868;DHT22;1949;48.152;11.528;2024-01-25T06:51:20;12.40;50.00
3868;DHT22;1949;48.152;11.528;2024-01-25T06:53:51;12.40;50.00
3868;DHT22;1949;48.152;11.528;2024-01-25T06:56:17;12.40;49.80
3868;DHT22;1949;48.152;11.528;2024-01-25T06:58:43;12.30;49.90
3868;DHT22;1949;48.152;11.528;2024-01-25T07:01:09;12.30;49.90
3868;DHT22;1949;48.152;11.528;2024-01-25T07:03:36;12.30;50.00
3868;DHT22;1949;48.152;11.528;2024-01-25T07:06:02;12.30;50.00
3868;DHT22;1949;48.152;11.528;2024-01-25T07:08:30;12.30;50.10
3868;DHT22;1949;48.152;11.528;2024-01-25T07:10:55;12.30;50.00
3868;DHT22;1949;48.152;11.528;2024-01-25T07:13:25;12.30;50.00
3868;DHT22;1949;48.152;11.528;2024-01-25T07:15:52;12.40;50.10
3868;DHT22;1949;48.152;11.528;2024-01-25T07:18:18;12.40;49.90
3868;DHT22;1949;48.152;11.528;2024-01-25T07:20:44;12.40;49.90
3868;DHT22;1949;48.152;11.528;2024-01-25T07:23:11;12.40;49.80
3868;DHT22;1949;48.152;11.528;2024-01-25T07:25:38;12.40;49.80
3868;DHT22;1949;48.152;11.528;2024-01-25T07:28:04;12.40;50.00
3868;DHT22;1949;48.152;11.528;2024-01-25T07:30:30;12.40;49.90
3868;DHT22;1949;48.152;11.528;2024-01-25T07:32:57;12.30;49.80
3868;DHT22;1949;48.152;11.528;2024-01-25T07:35:24;12.30;49.70
3868;DHT22;1949;48.152;11.528;2024-01-25T07:37:49;12.30;49.80
3868;DHT22;1949;48.152;11.528;2024-01-25T07:40:16;12.30;49.80
3868;DHT22;1949;48.152;11.528;2024-01-25T07:42:42;12.30;49.80
3868;DHT22;1949;48.152;11.528;2024-01-25T07:45:08;12.30;49.90
3868;DHT22;1949;48.152;11.528;2024-01-25T07:47:34;12.30;49.90
3868;DHT22;1949;48.152;11.528;2024-01-25T07:50:00;12.40;50.00
3868;DHT22;1949;48.152;11.528;2024-01-25T07:52:26;12.40;49.80
3868;DHT22;1949;48.152;11.528;2024-01-25T07:54:52;12.40;49.80
3868;DHT22;1949;48.152;11.528;2024-01-25T07:57:26;12.30;49.70
3868;DHT22;1949;48.152;11.528;2024-01-25T07:59:52;12.30;49.90
3868;DHT22;1949;48.152;11.528;2024-01-25T08:02:17;12.40;49.90
3868;DHT22;1949;48.152;11.528;2024-01-25T08:04:44;12.40;49.80
3868;DHT22;1949;48.152;11.528;2024-01-25T08:07:11;12.40;49.90
3868;DHT22;1949;48.152;11.528;2024-01-25T08:09:37;12.40;50.00
3868;DHT22;1949;48.152;11.528;2024-01-25T08:12:03;12.40;49.90
3868;DHT22;1949;48.152;11.528;2024-01-25T08:14:29;12.40;49.80
3868;DHT22;1949;48.152;11.528;2024-01-25T08:16:55;12.40;49.80
3868;DHT22;1949;48.152;11.528;2024-01-25T08:19:21;12.40;49.50
3868;DHT22;1949;48.152;11.528;2024-01-25T08:21:47;12.40;49.40
3868;DHT22;1949;48.152;11.528;2024-01-25T08:24:12;12.40;49.50
3868;DHT22;1949;48.152;11.528;2024-01-25T08:26:38;12.40;49.40
3868;DHT22;1949;48.152;11.528;2024-01-25T08:29:04;12.30;49.40
3868;DHT22;1949;48.152;11.528;2024-01-25T08:31:30;12.40;49.60
3868;DHT22;1949;48.152;11.528;2024-01-25T08:33:56;12.40;49.70
3868;DHT22;1949;48.152;11.528;2024-01-25T08:36:21;12.40;49.60
3868;DHT22;1949;48.152;11.528;2024-01-25T08:38:48;12.50;49.60
3868;DHT22;1949;48.152;11.528;2024-01-25T08:41:15;12.50;49.40
3868;DHT22;1949;48.152;11.528;2024-01-25T08:43:42;12.50;49.40
3868;DHT22;1949;48.152;11.528;2024-01-25T08:46:07;12.50;49.30
3868;DHT22;1949;48.152;11.528;2024-01-25T08:48:34;12.50;49.30
3868;DHT22;1949;48.152;11.528;2024-01-25T08:51:00;12.50;49.30
3868;DHT22;1949;48.152;11.528;2024-01-25T08:53:25;12.50;49.50
3868;DHT22;1949;48.152;11.528;2024-01-25T08:55:54;12.50;49.30
3868;DHT22;1949;48.152;11.528;2024-01-25T08:58:21;12.60;49.30
3868;DHT22;1949;48.152;11.528;2024-01-25T09:00:47;12.60;49.40
3868;DHT22;1949;48.152;11.528;2024-01-25T09:03:16;12.60;49.30
3868;DHT22;1949;48.152;11.528;2024-01-25T09:05:42;12.70;49.10
3868;DHT22;1949;48.152;11.528;2024-01-25T09:08:13;12.60;48.90
3868;DHT22;1949;48.152;11.528;2024-01-25T09:10:41;12.60;49.00
3868;DHT22;1949;48.152;11.528;2024-01-25T09:13:08;12.60;49.10
3868;DHT22;1949;48.152;11.528;2024-01-25T09:15:35;12.60;48.90
3868;DHT22;1949;48.152;11.528;2024-01-25T09:18:00;12.60;48.90
3868;DHT22;1949;48.152;11.528;2024-01-25T09:20:27;12.60;49.00
3868;DHT22;1949;48.152;11.528;2024-01-25T09:22:53;12.60;48.70
3868;DHT22;1949;48.152;11.528;2024-01-25T09:25:22;12.60;48.80
3868;DHT22;1949;48.152;11.528;2024-01-25T09:27:47;12.70;48.70
3868;DHT22;1949;48.152;11.528;2024-01-25T09:30:14;12.70;48.70
3868;DHT22;1949;48.152;11.528;2024-01-25T09:32:39;12.70;48.60
3868;DHT22;1949;48.152;11.528;2024-01-25T09:35:05;12.80;48.60
3868;DHT22;1949;48.152;11.528;2024-01-25T09:37:31;12.80;48.30
3868;DHT22;1949;48.152;11.528;2024-01-25T09:39:57;12.80;48.30
3868;DHT22;1949;48.152;11.528;2024-01-25T09:42:26;12.80;48.30
3868;DHT22;1949;48.152;11.528;2024-01-25T09:44:55;12.80;48.20
3868;DHT22;1949;48.152;11.528;2024-01-25T09:47:27;12.80;48.20
3868;DHT22;1949;48.152;11.528;2024-01-25T09:49:52;12.80;48.10
3868;DHT22;1949;48.152;11.528;2024-01-25T09:52:22;12.80;48.00
3868;DHT22;1949;48.152;11.528;2024-01-25T09:54:53;12.80;47.90
3868;DHT22;1949;48.152;11.528;2024-01-25T09:57:24;12.90;48.00
3868;DHT22;1949;48.152;11.528;2024-01-25T09:59:51;12.90;47.70
3868;DHT22;1949;48.152;11.528;2024-01-25T10:02:17;12.90;47.70
3868;DHT22;1949;48.152;11.528;2024-01-25T10:04:51;12.90;47.60
3868;DHT22;1949;48.152;11.528;2024-01-25T10:10:04;12.80;47.40
3868;DHT22;1949;48.152;11.528;2024-01-25T10:12:31;12.80;47.50
3868;DHT22;1949;48.152;11.528;2024-01-25T10:14:57;12.90;47.80
3868;DHT22;1949;48.152;11.528;2024-01-25T10:17:23;12.90;47.70
3868;DHT22;1949;48.152;11.528;2024-01-25T10:19:49;13.00;47.60
3868;DHT22;1949;48.152;11.528;2024-01-25T10:22:16;13.00;47.40
3868;DHT22;1949;48.152;11.528;2024-01-25T10:24:42;13.00;47.10
3868;DHT22;1949;48.152;11.528;2024-01-25T10:27:10;13.00;47.20
3868;DHT22;1949;48.152;11.528;2024-01-25T10:29:38;13.00;47.00
3868;DHT22;1949;48.152;11.528;2024-01-25T10:32:04;12.90;47.00
3868;DHT22;1949;48.152;11.528;2024-01-25T10:34:31;12.90;47.10
3868;DHT22;1949;48.152;11.528;2024-01-25T10:36:59;12.90;47.10
3868;DHT22;1949;48.152;11.528;2024-01-25T10:39:28;12.90;47.10
3868;DHT22;1949;48.152;11.528;2024-01-25T10:41:55;12.90;46.90
3868;DHT22;1949;48.152;11.528;2024-01-25T10:44:21;12.90;46.80
3868;DHT22;1949;48.152;11.528;2024-01-25T10:46:48;12.90;46.70
3868;DHT22;1949;48.152;11.528;2024-01-25T10:49:14;12.90;46.90
3868;DHT22;1949;48.152;11.528;2024-01-25T10:51:41;12.90;46.70
3868;DHT22;1949;48.152;11.528;2024-01-25T10:54:12;12.90;46.60
3868;DHT22;1949;48.152;11.528;2024-01-25T10:56:41;12.80;46.40
3868;DHT22;1949;48.152;11.528;2024-01-25T10:59:13;12.80;46.60
3868;DHT22;1949;48.152;11.528;2024-01-25T11:01:44;12.70;46.50
3868;DHT22;1949;48.152;11.528;2024-01-25T11:04:16;12.70;46.60
3868;DHT22;1949;48.152;11.528;2024-01-25T11:06:45;12.70;46.80
3868;DHT22;1949;48.152;11.528;2024-01-25T11:09:18;12.70;46.80
3868;DHT22;1949;48.152;11.528;2024-01-25T11:11:46;12.80;46.80
3868;DHT22;1949;48.152;11.528;2024-01-25T11:14:15;12.80;46.70
3868;DHT22;1949;48.152;11.528;2024-01-25T11:16:44;12.80;46.70
3868;DHT22;1949;48.152;11.528;2024-01-25T11:19:22;12.90;46.70
3868;DHT22;1949;48.152;11.528;2024-01-25T11:21:49;12.90;46.70
3868;DHT22;1949;48.152;11.528;2024-01-25T11:24:20;12.90;46.70
3868;DHT22;1949;48.152;11.528;2024-01-25T11:26:46;13.00;46.80
3868;DHT22;1949;48.152;11.528;2024-01-25T11:29:14;13.00;46.80
3868;DHT22;1949;48.152;11.528;2024-01-25T11:31:47;13.10;46.80
3868;DHT22;1949;48.152;11.528;2024-01-25T11:34:14;13.10;46.60
3868;DHT22;1949;48.152;11.528;2024-01-25T11:36:49;13.20;46.60
3868;DHT22;1949;48.152;11.528;2024-01-25T11:39:16;13.20;46.60
3868;DHT22;1949;48.152;11.528;2024-01-25T11:41:43;13.30;46.60
3868;DHT22;1949;48.152;11.528;2024-01-25T11:44:12;13.30;46.60
3868;DHT22;1949;48.152;11.528;2024-01-25T11:46:42;13.40;46.50
3868;DHT22;1949;48.152;11.528;2024-01-25T11:49:07;13.50;46.40
3868;DHT22;1949;48.152;11.528;2024-01-25T11:51:33;13.50;46.30
3868;DHT22;1949;48.152;11.528;2024-01-25T11:54:00;13.60;46.40
3868;DHT22;1949;48.152;11.528;2024-01-25T11:56:29;13.60;46.30
3868;DHT22;1949;48.152;11.528;2024-01-25T11:58:57;13.70;46.50
3868;DHT22;1949;48.152;11.528;2024-01-25T12:01:27;13.90;46.50
3868;DHT22;1949;48.152;11.528;2024-01-25T12:03:54;14.00;46.10
3868;DHT22;1949;48.152;11.528;2024-01-25T12:06:19;14.00;45.80
3868;DHT22;1949;48.152;11.528;2024-01-25T12:08:45;14.00;45.70
3868;DHT22;1949;48.152;11.528;2024-01-25T12:11:16;14.10;45.80
3868;DHT22;1949;48.152;11.528;2024-01-25T12:13:44;14.10;45.60
3868;DHT22;1949;48.152;11.528;2024-01-25T12:16:11;14.10;45.60
3868;DHT22;1949;48.152;11.528;2024-01-25T12:18:37;14.20;45.50
3868;DHT22;1949;48.152;11.528;2024-01-25T12:21:04;14.30;45.60
3868;DHT22;1949;48.152;11.528;2024-01-25T12:23:35;14.40;45.70
3868;DHT22;1949;48.152;11.528;2024-01-25T12:26:08;14.50;45.60
3868;DHT22;1949;48.152;11.528;2024-01-25T12:28:37;14.60;45.30
3868;DHT22;1949;48.152;11.528;2024-01-25T12:31:04;14.60;45.10
3868;DHT22;1949;48.152;11.528;2024-01-25T12:33:31;14.70;45.10
3868;DHT22;1949;48.152;11.528;2024-01-25T12:35:57;14.70;45.20
3868;DHT22;1949;48.152;11.528;2024-01-25T12:38:24;14.80;45.30
3868;DHT22;1949;48.152;11.528;2024-01-25T12:40:51;15.00;45.30
3868;DHT22;1949;48.152;11.528;2024-01-25T12:43:18;15.20;45.40
3868;DHT22;1949;48.152;11.528;2024-01-25T12:45:45;15.30;44.70
3868;DHT22;1949;48.152;11.528;2024-01-25T12:48:12;15.20;44.20
3868;DHT22;1949;48.152;11.528;2024-01-25T12:50:38;15.10;44.20
3868;DHT22;1949;48.152;11.528;2024-01-25T12:53:05;14.90;44.10
3868;DHT22;1949;48.152;11.528;2024-01-25T12:55:32;14.80;44.30
3868;DHT22;1949;48.152;11.528;2024-01-25T12:57:59;14.70;44.40
3868;DHT22;1949;48.152;11.528;2024-01-25T13:00:25;14.70;44.60
3868;DHT22;1949;48.152;11.528;2024-01-25T13:02:51;14.70;44.40
3868;DHT22;1949;48.152;11.528;2024-01-25T13:05:19;14.60;44.40
3868;DHT22;1949;48.152;11.528;2024-01-25T13:07:45;14.60;44.50
3868;DHT22;1949;48.152;11.528;2024-01-25T13:10:11;14.50;44.60
3868;DHT22;1949;48.152;11.528;2024-01-25T13:12:40;14.50;44.60
3868;DHT22;1949;48.152;11.528;2024-01-25T13:15:07;14.50;44.60
3868;DHT22;1949;48.152;11.528;2024-01-25T13:17:36;14.50;44.70
3868;DHT22;1949;48.152;11.528;2024-01-25T13:20:03;14.50;44.50
3868;DHT22;1949;48.152;11.528;2024-01-25T13:22:29;14.50;44.60
3868;DHT22;1949;48.152;11.528;2024-01-25T13:24:56;14.50;44.70
3868;DHT22;1949;48.152;11.528;2024-01-25T13:27:22;14.50;45.00
3868;DHT22;1949;48.152;11.528;2024-01-25T13:29:48;14.60;44.50
3868;DHT22;1949;48.152;11.528;2024-01-25T13:32:13;14.50;44.60
3868;DHT22;1949;48.152;11.528;2024-01-25T13:34:39;14.50;44.50
3868;DHT22;1949;48.152;11.528;2024-01-25T13:37:05;14.50;44.40
3868;DHT22;1949;48.152;11.528;2024-01-25T13:39:31;14.60;44.60
3868;DHT22;1949;48.152;11.528;2024-01-25T13:41:57;14.60;44.50
3868;DHT22;1949;48.152;11.528;2024-01-25T13:44:23;14.60;44.30
3868;DHT22;1949;48.152;11.528;2024-01-25T13:46:51;14.60;44.20
3868;DHT22;1949;48.152;11.528;2024-01-25T13:49:17;14.60;44.10
3868;DHT22;1949;48.152;11.528;2024-01-25T13:51:44;14.60;44.30
3868;DHT22;1949;48.152;11.528;2024-01-25T13:54:10;14.60;44.30
3868;DHT22;1949;48.152;11.528;2024-01-25T13:56:36;14.60;44.20
3868;DHT22;1949;48.152;11.528;2024-01-25T13:59:02;14.60;44.10
3868;DHT22;1949;48.152;11.528;2024-01-25T14:01:28;14.60;44.00
3868;DHT22;1949;48.152;11.528;2024-01-25T14:03:55;14.60;44.00
3868;DHT22;1949;48.152;11.528;2024-01-25T14:06:21;14.60;44.00
3868;DHT22;1949;48.152;11.528;2024-01-25T14:08:46;14.50;43.90
3868;DHT22;1949;48.152;11.528;2024-01-25T14:11:15;14.50;43.90
3868;DHT22;1949;48.152;11.528;2024-01-25T14:13:42;14.40;43.90
3868;DHT22;1949;48.152;11.528;2024-01-25T14:16:07;14.40;44.10
3868;DHT22;1949;48.152;11.528;2024-01-25T14:18:39;14.40;44.10
3868;DHT22;1949;48.152;11.528;2024-01-25T14:21:06;14.40;44.20
3868;DHT22;1949;48.152;11.528;2024-01-25T14:23:32;14.40;44.10
3868;DHT22;1949;48.152;11.528;2024-01-25T14:25:58;14.50;44.20
3868;DHT22;1949;48.152;11.528;2024-01-25T14:28:24;14.50;44.10
3868;DHT22;1949;48.152;11.528;2024-01-25T14:30:50;14.50;44.00
3868;DHT22;1949;48.152;11.528;2024-01-25T14:33:17;14.50;44.10
3868;DHT22;1949;48.152;11.528;2024-01-25T14:35:43;14.50;44.00
3868;DHT22;1949;48.152;11.528;2024-01-25T14:38:08;14.60;44.00
3868;DHT22;1949;48.152;11.528;2024-01-25T14:40:34;14.60;44.00
3868;DHT22;1949;48.152;11.528;2024-01-25T14:43:02;14.50;44.50
3868;DHT22;1949;48.152;11.528;2024-01-25T14:45:28;14.60;44.00
3868;DHT22;1949;48.152;11.528;2024-01-25T14:47:59;14.60;44.00
3868;DHT22;1949;48.152;11.528;2024-01-25T14:50:26;14.60;43.90
3868;DHT22;1949;48.152;11.528;2024-01-25T14:52:52;14.50;43.70
3868;DHT22;1949;48.152;11.528;2024-01-25T14:55:18;14.50;43.90
3868;DHT22;1949;48.152;11.528;2024-01-25T14:57:44;14.40;43.90
3868;DHT22;1949;48.152;11.528;2024-01-25T15:00:10;14.40;43.90
3868;DHT22;1949;48.152;11.528;2024-01-25T15:02:38;14.40;44.00
3868;DHT22;1949;48.152;11.528;2024-01-25T15:05:05;14.40;44.00
3868;DHT22;1949;48.152;11.528;2024-01-25T15:07:31;14.40;44.00
3868;DHT22;1949;48.152;11.528;2024-01-25T15:09:57;14.40;44.00
3868;DHT22;1949;48.152;11.528;2024-01-25T15:12:22;14.40;44.00
3868;DHT22;1949;48.152;11.528;2024-01-25T15:14:48;14.30;43.90
3868;DHT22;1949;48.152;11.528;2024-01-25T15:17:14;14.30;44.00
3868;DHT22;1949;48.152;11.528;2024-01-25T15:19:39;14.30;44.00
3868;DHT22;1949;48.152;11.528;2024-01-25T15:22:05;14.30;44.00
3868;DHT22;1949;48.152;11.528;2024-01-25T15:24:31;14.30;44.00
3868;DHT22;1949;48.152;11.528;2024-01-25T15:26:58;14.30;44.00
3868;DHT22;1949;48.152;11.528;2024-01-25T15:29:23;14.30;44.00
3868;DHT22;1949;48.152;11.528;2024-01-25T15:31:49;14.30;44.00
3868;DHT22;1949;48.152;11.528;2024-01-25T15:34:15;14.20;43.90
3868;DHT22;1949;48.152;11.528;2024-01-25T15:36:41;14.20;44.00
3868;DHT22;1949;48.152;11.528;2024-01-25T15:39:09;14.20;44.00
3868;DHT22;1949;48.152;11.528;2024-01-25T15:41:36;14.10;44.00
3868;DHT22;1949;48.152;11.528;2024-01-25T15:44:02;14.10;44.10
3868;DHT22;1949;48.152;11.528;2024-01-25T15:46:29;14.10;44.10